sensor_id;sensor_type;location;lat;lon;timestamp;temperature;humidity
35645;DHT22;21764;52.042;6.830;2023-08-01T00:04:40;16.70;99.90
35645;DHT22;21764;52.042;6.830;2023-08-01T00:09:40;16.70;99.90
35645;DHT22;21764;52.042;6.830;2023-08-01T00:14:41;16.70;99.90
35645;DHT22;21764;52.042;6.830;2023-08-01T00:19:42;16.70;99.90
35645;DHT22;21764;52.042;6.830;2023-08-01T00:24:42;16.70;99.90
35645;DHT22;21764;52.042;6.830;2023-08-01T00:29:43;16.70;99.90
35645;DHT22;21764;52.042;6.830;2023-08-01T00:34:44;16.70;99.90
35645;DHT22;21764;52.042;6.830;2023-08-01T00:39:44;16.70;99.90
35645;DHT22;21764;52.042;6.830;2023-08-01T00:44:45;16.70;99.90
35645;DHT22;21764;52.042;6.830;2023-08-01T00:49:48;16.70;99.90
35645;DHT22;21764;52.042;6.830;2023-08-01T00:54:49;16.70;99.90
35645;DHT22;21764;52.042;6.830;2023-08-01T00:59:59;16.70;99.90
35645;DHT22;21764;52.042;6.830;2023-08-01T01:05:00;16.70;99.90
35645;DHT22;21764;52.042;6.830;2023-08-01T01:10:01;16.70;99.90
35645;DHT22;21764;52.042;6.830;2023-08-01T01:15:02;16.70;99.90
35645;DHT22;21764;52.042;6.830;2023-08-01T01:20:03;16.70;99.90
35645;DHT22;21764;52.042;6.830;2023-08-01T01:25:04;16.80;99.90
35645;DHT22;21764;52.042;6.830;2023-08-01T01:30:06;16.70;99.90
35645;DHT22;21764;52.042;6.830;2023-08-01T01:35:07;16.70;99.90
35645;DHT22;21764;52.042;6.830;2023-08-01T01:40:08;16.80;99.90
35645;DHT22;21764;52.042;6.830;2023-08-01T01:45:09;16.70;99.90
35645;DHT22;21764;52.042;6.830;2023-08-01T01:50:10;16.70;99.90
35645;DHT22;21764;52.042;6.830;2023-08-01T01:55:10;16.70;99.90
35645;DHT22;21764;52.042;6.830;2023-08-01T02:00:11;16.70;99.90
35645;DHT22;21764;52.042;6.830;2023-08-01T02:05:12;16.70;99.90
35645;DHT22;21764;52.042;6.830;2023-08-01T02:10:13;16.60;99.90
35645;DHT22;21764;52.042;6.830;2023-08-01T02:15:14;16.60;99.90
35645;DHT22;21764;52.042;6.830;2023-08-01T02:20:14;16.60;99.90
35645;DHT22;21764;52.042;6.830;2023-08-01T02:25:15;16.60;99.90
35645;DHT22;21764;52.042;6.830;2023-08-01T02:30:16;16.50;99.90
35645;DHT22;21764;52.042;6.830;2023-08-01T02:35:16;16.50;99.90
35645;DHT22;21764;52.042;6.830;2023-08-01T02:40:17;16.50;99.90
35645;DHT22;21764;52.042;6.830;2023-08-01T02:45:18;16.40;99.90
35645;DHT22;21764;52.042;6.830;2023-08-01T02:50:18;16.40;99.90
35645;DHT22;21764;52.042;6.830;2023-08-01T02:55:19;16.40;99.90
35645;DHT22;21764;52.042;6.830;2023-08-01T03:00:20;16.40;99.90
35645;DHT22;21764;52.042;6.830;2023-08-01T03:05:20;16.40;99.90
35645;DHT22;21764;52.042;6.830;2023-08-01T03:10:21;16.40;99.90
35645;DHT22;21764;52.042;6.830;2023-08-01T03:15:22;16.30;99.90
35645;DHT22;21764;52.042;6.830;2023-08-01T03:20:22;16.30;99.90
35645;DHT22;21764;52.042;6.830;2023-08-01T03:25:23;16.20;99.90
35645;DHT22;21764;52.042;6.830;2023-08-01T03:30:23;16.20;99.90
35645;DHT22;21764;52.042;6.830;2023-08-01T03:35:24;16.10;99.90
35645;DHT22;21764;52.042;6.830;2023-08-01T03:40:25;15.80;99.90
35645;DHT22;21764;52.042;6.830;2023-08-01T03:45:26;15.60;99.90
35645;DHT22;21764;52.042;6.830;2023-08-01T03:50:26;15.50;99.90
35645;DHT22;21764;52.042;6.830;2023-08-01T03:55:27;15.40;99.90
35645;DHT22;21764;52.042;6.830;2023-08-01T04:00:28;15.40;99.90
35645;DHT22;21764;52.042;6.830;2023-08-01T04:05:32;15.30;99.90
35645;DHT22;21764;52.042;6.830;2023-08-01T04:10:33;15.50;99.90
35645;DHT22;21764;52.042;6.830;2023-08-01T04:15:34;15.60;99.90
35645;DHT22;21764;52.042;6.830;2023-08-01T04:20:34;15.60;99.90
35645;DHT22;21764;52.042;6.830;2023-08-01T04:25:35;15.60;99.90
35645;DHT22;21764;52.042;6.830;2023-08-01T04:30:36;15.80;99.90
35645;DHT22;21764;52.042;6.830;2023-08-01T04:35:38;15.90;99.90
35645;DHT22;21764;52.042;6.830;2023-08-01T04:40:39;16.10;99.90
35645;DHT22;21764;52.042;6.830;2023-08-01T04:45:39;16.20;99.90
35645;DHT22;21764;52.042;6.830;2023-08-01T04:50:40;16.20;99.90
35645;DHT22;21764;52.042;6.830;2023-08-01T04:55:41;16.20;99.90
35645;DHT22;21764;52.042;6.830;2023-08-01T05:00:42;16.30;99.90
35645;DHT22;21764;52.042;6.830;2023-08-01T05:05:43;16.40;99.90
35645;DHT22;21764;52.042;6.830;2023-08-01T05:10:43;16.40;99.90
35645;DHT22;21764;52.042;6.830;2023-08-01T05:15:45;16.40;99.90
35645;DHT22;21764;52.042;6.830;2023-08-01T05:20:47;16.40;99.90
35645;DHT22;21764;52.042;6.830;2023-08-01T05:25:48;16.30;99.90
35645;DHT22;21764;52.042;6.830;2023-08-01T05:30:49;16.30;99.90
35645;DHT22;21764;52.042;6.830;2023-08-01T05:35:49;16.40;99.90
35645;DHT22;21764;52.042;6.830;2023-08-01T05:40:50;16.30;99.90
35645;DHT22;21764;52.042;6.830;2023-08-01T05:45:51;16.30;99.90
35645;DHT22;21764;52.042;6.830;2023-08-01T05:50:52;16.10;99.90
35645;DHT22;21764;52.042;6.830;2023-08-01T05:55:55;16.10;99.90
35645;DHT22;21764;52.042;6.830;2023-08-01T06:00:56;16.10;99.90
35645;DHT22;21764;52.042;6.830;2023-08-01T06:05:57;16.10;99.90
35645;DHT22;21764;52.042;6.830;2023-08-01T06:10:58;16.10;99.90
35645;DHT22;21764;52.042;6.830;2023-08-01T06:15:59;16.10;99.90
35645;DHT22;21764;52.042;6.830;2023-08-01T06:20:59;16.10;99.90
35645;DHT22;21764;52.042;6.830;2023-08-01T06:26:00;16.10;99.90
35645;DHT22;21764;52.042;6.830;2023-08-01T06:31:01;17.30;99.90
35645;DHT22;21764;52.042;6.830;2023-08-01T06:36:02;18.30;99.90
35645;DHT22;21764;52.042;6.830;2023-08-01T06:41:02;18.80;99.90
35645;DHT22;21764;52.042;6.830;2023-08-01T06:46:03;21.20;99.90
35645;DHT22;21764;52.042;6.830;2023-08-01T06:51:04;27.20;99.90
35645;DHT22;21764;52.042;6.830;2023-08-01T06:56:05;28.60;92.30
35645;DHT22;21764;52.042;6.830;2023-08-01T07:01:09;26.60;93.40
35645;DHT22;21764;52.042;6.830;2023-08-01T07:06:09;23.50;97.30
35645;DHT22;21764;52.042;6.830;2023-08-01T07:11:10;21.30;99.90
35645;DHT22;21764;52.042;6.830;2023-08-01T07:16:11;19.80;99.90
35645;DHT22;21764;52.042;6.830;2023-08-01T07:21:11;19.80;99.90
35645;DHT22;21764;52.042;6.830;2023-08-01T07:26:12;25.00;99.40
35645;DHT22;21764;52.042;6.830;2023-08-01T07:31:13;27.00;94.60
35645;DHT22;21764;52.042;6.830;2023-08-01T07:36:13;24.40;95.70
35645;DHT22;21764;52.042;6.830;2023-08-01T07:41:14;21.70;99.10
35645;DHT22;21764;52.042;6.830;2023-08-01T07:46:15;22.10;99.90
35645;DHT22;21764;52.042;6.830;2023-08-01T07:51:15;20.50;99.90
35645;DHT22;21764;52.042;6.830;2023-08-01T07:56:16;19.90;99.90
35645;DHT22;21764;52.042;6.830;2023-08-01T08:01:17;29.20;94.50
35645;DHT22;21764;52.042;6.830;2023-08-01T08:06:17;37.80;72.00
35645;DHT22;21764;52.042;6.830;2023-08-01T08:11:18;30.50;74.40
35645;DHT22;21764;52.042;6.830;2023-08-01T08:16:19;27.80;81.10
35645;DHT22;21764;52.042;6.830;2023-08-01T08:21:19;23.90;91.20
35645;DHT22;21764;52.042;6.830;2023-08-01T08:26:20;30.50;86.90
35645;DHT22;21764;52.042;6.830;2023-08-01T08:31:20;38.70;61.80
35645;DHT22;21764;52.042;6.830;2023-08-01T08:36:21;29.40;72.40
35645;DHT22;21764;52.042;6.830;2023-08-01T08:41:25;34.90;69.40
35645;DHT22;21764;52.042;6.830;2023-08-01T08:46:29;39.00;58.30
35645;DHT22;21764;52.042;6.830;2023-08-01T08:51:31;40.20;55.00
35645;DHT22;21764;52.042;6.830;2023-08-01T08:56:34;42.60;52.30
35645;DHT22;21764;52.042;6.830;2023-08-01T09:01:35;37.30;53.00
35645;DHT22;21764;52.042;6.830;2023-08-01T09:06:44;36.00;55.50
35645;DHT22;21764;52.042;6.830;2023-08-01T09:11:47;35.30;57.10
35645;DHT22;21764;52.042;6.830;2023-08-01T09:16:48;33.20;58.90
35645;DHT22;21764;52.042;6.830;2023-08-01T09:21:50;28.50;69.20
35645;DHT22;21764;52.042;6.830;2023-08-01T09:26:51;25.20;80.10
35645;DHT22;21764;52.042;6.830;2023-08-01T09:31:52;24.70;85.20
35645;DHT22;21764;52.042;6.830;2023-08-01T09:36:59;24.10;86.50
35645;DHT22;21764;52.042;6.830;2023-08-01T09:42:01;22.20;91.80
35645;DHT22;21764;52.042;6.830;2023-08-01T09:47:05;20.80;95.30
35645;DHT22;21764;52.042;6.830;2023-08-01T09:52:09;20.40;96.40
35645;DHT22;21764;52.042;6.830;2023-08-01T09:57:10;21.00;97.30
35645;DHT22;21764;52.042;6.830;2023-08-01T10:02:15;29.40;86.60
35645;DHT22;21764;52.042;6.830;2023-08-01T10:07:21;31.50;74.80
35645;DHT22;21764;52.042;6.830;2023-08-01T10:12:26;30.00;74.50
35645;DHT22;21764;52.042;6.830;2023-08-01T10:17:28;26.70;80.00
35645;DHT22;21764;52.042;6.830;2023-08-01T10:22:29;25.10;86.60
35645;DHT22;21764;52.042;6.830;2023-08-01T10:27:30;26.20;86.60
35645;DHT22;21764;52.042;6.830;2023-08-01T10:32:39;28.20;79.10
35645;DHT22;21764;52.042;6.830;2023-08-01T10:42:42;24.10;90.10
35645;DHT22;21764;52.042;6.830;2023-08-01T10:47:43;25.30;89.20
35645;DHT22;21764;52.042;6.830;2023-08-01T10:52:45;28.50;80.00
35645;DHT22;21764;52.042;6.830;2023-08-01T10:57:48;29.50;75.70
35645;DHT22;21764;52.042;6.830;2023-08-01T11:02:50;27.80;75.20
35645;DHT22;21764;52.042;6.830;2023-08-01T11:08:00;25.30;78.80
35645;DHT22;21764;52.042;6.830;2023-08-01T11:13:02;23.70;83.00
35645;DHT22;21764;52.042;6.830;2023-08-01T11:18:03;22.90;86.20
35645;DHT22;21764;52.042;6.830;2023-08-01T11:23:04;23.40;86.60
35645;DHT22;21764;52.042;6.830;2023-08-01T11:28:10;23.50;86.30
35645;DHT22;21764;52.042;6.830;2023-08-01T11:33:21;23.50;86.60
35645;DHT22;21764;52.042;6.830;2023-08-01T11:38:25;22.70;89.00
35645;DHT22;21764;52.042;6.830;2023-08-01T11:43:26;22.70;90.60
35645;DHT22;21764;52.042;6.830;2023-08-01T11:48:26;22.90;90.60
35645;DHT22;21764;52.042;6.830;2023-08-01T11:53:28;22.50;91.20
35645;DHT22;21764;52.042;6.830;2023-08-01T11:58:41;21.80;92.20
35645;DHT22;21764;52.042;6.830;2023-08-01T12:03:46;22.40;92.10
35645;DHT22;21764;52.042;6.830;2023-08-01T12:08:48;22.90;90.60
35645;DHT22;21764;52.042;6.830;2023-08-01T12:14:12;22.50;91.40
35645;DHT22;21764;52.042;6.830;2023-08-01T12:19:17;22.30;91.30
35645;DHT22;21764;52.042;6.830;2023-08-01T12:24:19;22.40;91.20
35645;DHT22;21764;52.042;6.830;2023-08-01T12:29:20;22.70;90.90
35645;DHT22;21764;52.042;6.830;2023-08-01T12:34:20;22.70;90.40
35645;DHT22;21764;52.042;6.830;2023-08-01T12:39:21;22.50;90.60
35645;DHT22;21764;52.042;6.830;2023-08-01T12:44:22;22.70;88.80
35645;DHT22;21764;52.042;6.830;2023-08-01T12:49:22;22.90;88.80
35645;DHT22;21764;52.042;6.830;2023-08-01T12:54:23;22.60;87.90
35645;DHT22;21764;52.042;6.830;2023-08-01T12:59:24;23.00;87.10
35645;DHT22;21764;52.042;6.830;2023-08-01T13:04:24;22.70;87.10
35645;DHT22;21764;52.042;6.830;2023-08-01T13:09:25;22.60;85.90
35645;DHT22;21764;52.042;6.830;2023-08-01T13:14:26;23.20;86.20
35645;DHT22;21764;52.042;6.830;2023-08-01T13:19:27;23.10;84.70
35645;DHT22;21764;52.042;6.830;2023-08-01T13:24:27;23.30;83.60
35645;DHT22;21764;52.042;6.830;2023-08-01T13:29:28;23.20;82.40
35645;DHT22;21764;52.042;6.830;2023-08-01T13:34:29;23.40;82.40
35645;DHT22;21764;52.042;6.830;2023-08-01T13:39:29;23.70;83.40
35645;DHT22;21764;52.042;6.830;2023-08-01T13:44:30;23.50;83.80
35645;DHT22;21764;52.042;6.830;2023-08-01T13:49:31;23.30;83.00
35645;DHT22;21764;52.042;6.830;2023-08-01T13:54:31;22.60;83.30
35645;DHT22;21764;52.042;6.830;2023-08-01T13:59:32;22.80;85.10
35645;DHT22;21764;52.042;6.830;2023-08-01T14:04:33;23.20;83.50
35645;DHT22;21764;52.042;6.830;2023-08-01T14:09:33;23.10;82.20
35645;DHT22;21764;52.042;6.830;2023-08-01T14:14:36;23.20;82.20
35645;DHT22;21764;52.042;6.830;2023-08-01T14:19:37;22.80;83.20
35645;DHT22;21764;52.042;6.830;2023-08-01T14:24:37;22.90;83.50
35645;DHT22;21764;52.042;6.830;2023-08-01T14:29:38;23.50;84.20
35645;DHT22;21764;52.042;6.830;2023-08-01T14:34:39;23.40;79.70
35645;DHT22;21764;52.042;6.830;2023-08-01T14:39:39;23.40;81.40
35645;DHT22;21764;52.042;6.830;2023-08-01T14:44:40;23.20;83.30
35645;DHT22;21764;52.042;6.830;2023-08-01T14:49:44;23.10;82.80
35645;DHT22;21764;52.042;6.830;2023-08-01T14:54:45;23.20;82.40
35645;DHT22;21764;52.042;6.830;2023-08-01T14:59:45;22.90;83.70
35645;DHT22;21764;52.042;6.830;2023-08-01T15:04:46;22.90;82.50
35645;DHT22;21764;52.042;6.830;2023-08-01T15:09:50;22.50;84.10
35645;DHT22;21764;52.042;6.830;2023-08-01T15:14:54;22.10;85.50
35645;DHT22;21764;52.042;6.830;2023-08-01T15:19:55;22.20;85.20
35645;DHT22;21764;52.042;6.830;2023-08-01T15:24:55;22.30;83.90
35645;DHT22;21764;52.042;6.830;2023-08-01T15:29:56;22.50;82.20
35645;DHT22;21764;52.042;6.830;2023-08-01T15:34:57;22.80;82.50
35645;DHT22;21764;52.042;6.830;2023-08-01T15:39:57;22.90;80.20
35645;DHT22;21764;52.042;6.830;2023-08-01T15:44:58;22.80;80.90
35645;DHT22;21764;52.042;6.830;2023-08-01T15:49:59;22.80;83.10
35645;DHT22;21764;52.042;6.830;2023-08-01T15:54:59;22.80;83.40
35645;DHT22;21764;52.042;6.830;2023-08-01T16:00:00;22.70;82.60
35645;DHT22;21764;52.042;6.830;2023-08-01T16:05:01;22.60;82.50
35645;DHT22;21764;52.042;6.830;2023-08-01T16:10:01;22.50;83.80
35645;DHT22;21764;52.042;6.830;2023-08-01T16:15:02;22.30;84.30
35645;DHT22;21764;52.042;6.830;2023-08-01T16:20:03;22.00;86.30
35645;DHT22;21764;52.042;6.830;2023-08-01T16:25:05;21.80;88.70
35645;DHT22;21764;52.042;6.830;2023-08-01T16:30:07;21.70;89.60
35645;DHT22;21764;52.042;6.830;2023-08-01T16:35:08;21.40;90.60
35645;DHT22;21764;52.042;6.830;2023-08-01T16:40:10;21.00;91.30
35645;DHT22;21764;52.042;6.830;2023-08-01T16:45:12;21.00;91.70
35645;DHT22;21764;52.042;6.830;2023-08-01T16:50:17;21.00;91.70
35645;DHT22;21764;52.042;6.830;2023-08-01T16:55:18;21.10;91.90
35645;DHT22;21764;52.042;6.830;2023-08-01T17:00:19;21.00;90.90
35645;DHT22;21764;52.042;6.830;2023-08-01T17:05:20;21.00;90.70
35645;DHT22;21764;52.042;6.830;2023-08-01T17:10:21;20.80;91.80
35645;DHT22;21764;52.042;6.830;2023-08-01T17:15:21;20.50;93.20
35645;DHT22;21764;52.042;6.830;2023-08-01T17:20:22;20.20;95.40
35645;DHT22;21764;52.042;6.830;2023-08-01T17:25:23;19.90;96.50
35645;DHT22;21764;52.042;6.830;2023-08-01T17:30:23;19.70;97.10
35645;DHT22;21764;52.042;6.830;2023-08-01T17:35:24;19.40;97.80
35645;DHT22;21764;52.042;6.830;2023-08-01T17:40:25;19.20;98.20
35645;DHT22;21764;52.042;6.830;2023-08-01T17:45:26;18.90;98.40
35645;DHT22;21764;52.042;6.830;2023-08-01T17:50:27;18.70;98.50
35645;DHT22;21764;52.042;6.830;2023-08-01T17:55:28;18.50;98.40
35645;DHT22;21764;52.042;6.830;2023-08-01T18:00:31;18.40;98.70
35645;DHT22;21764;52.042;6.830;2023-08-01T18:05:33;18.30;99.10
35645;DHT22;21764;52.042;6.830;2023-08-01T18:10:35;18.30;99.00
35645;DHT22;21764;52.042;6.830;2023-08-01T18:15:39;18.30;99.40
35645;DHT22;21764;52.042;6.830;2023-08-01T18:20:41;18.40;99.40
35645;DHT22;21764;52.042;6.830;2023-08-01T18:25:42;18.40;99.30
35645;DHT22;21764;52.042;6.830;2023-08-01T18:30:42;18.30;99.20
35645;DHT22;21764;52.042;6.830;2023-08-01T18:35:44;18.40;99.60
35645;DHT22;21764;52.042;6.830;2023-08-01T18:40:45;18.30;99.50
35645;DHT22;21764;52.042;6.830;2023-08-01T18:45:55;18.30;99.40
35645;DHT22;21764;52.042;6.830;2023-08-01T18:50:56;18.30;99.40
35645;DHT22;21764;52.042;6.830;2023-08-01T18:56:11;18.30;99.60
35645;DHT22;21764;52.042;6.830;2023-08-01T19:01:17;18.30;99.80
35645;DHT22;21764;52.042;6.830;2023-08-01T19:06:19;18.20;99.80
35645;DHT22;21764;52.042;6.830;2023-08-01T19:11:20;18.10;99.60
35645;DHT22;21764;52.042;6.830;2023-08-01T19:16:21;18.10;99.70
35645;DHT22;21764;52.042;6.830;2023-08-01T19:21:22;18.00;99.50
35645;DHT22;21764;52.042;6.830;2023-08-01T19:26:22;17.90;99.70
35645;DHT22;21764;52.042;6.830;2023-08-01T19:31:24;17.90;99.60
35645;DHT22;21764;52.042;6.830;2023-08-01T19:36:25;17.80;99.60
35645;DHT22;21764;52.042;6.830;2023-08-01T19:41:26;17.80;99.80
35645;DHT22;21764;52.042;6.830;2023-08-01T19:46:27;17.80;99.90
35645;DHT22;21764;52.042;6.830;2023-08-01T19:51:27;17.70;99.90
35645;DHT22;21764;52.042;6.830;2023-08-01T19:56:28;17.70;99.90
35645;DHT22;21764;52.042;6.830;2023-08-01T20:01:39;17.70;99.90
35645;DHT22;21764;52.042;6.830;2023-08-01T20:06:45;17.70;99.90
35645;DHT22;21764;52.042;6.830;2023-08-01T20:11:47;17.70;99.90
35645;DHT22;21764;52.042;6.830;2023-08-01T20:17:05;17.70;99.90
35645;DHT22;21764;52.042;6.830;2023-08-01T20:22:16;17.70;99.90
35645;DHT22;21764;52.042;6.830;2023-08-01T20:27:36;17.70;99.90
35645;DHT22;21764;52.042;6.830;2023-08-01T20:32:37;17.70;99.90
35645;DHT22;21764;52.042;6.830;2023-08-01T20:37:41;17.70;99.90
35645;DHT22;21764;52.042;6.830;2023-08-01T20:42:44;17.70;99.90
35645;DHT22;21764;52.042;6.830;2023-08-01T20:48:04;17.70;99.90
35645;DHT22;21764;52.042;6.830;2023-08-01T20:53:04;17.70;99.80
35645;DHT22;21764;52.042;6.830;2023-08-01T20:58:09;17.60;99.80
35645;DHT22;21764;52.042;6.830;2023-08-01T21:03:12;17.60;99.70
35645;DHT22;21764;52.042;6.830;2023-08-01T21:08:13;17.60;99.60
35645;DHT22;21764;52.042;6.830;2023-08-01T21:13:19;17.60;99.30
35645;DHT22;21764;52.042;6.830;2023-08-01T21:18:24;17.60;99.40
35645;DHT22;21764;52.042;6.830;2023-08-01T21:23:28;17.60;99.40
35645;DHT22;21764;52.042;6.830;2023-08-01T21:28:30;17.60;99.00
35645;DHT22;21764;52.042;6.830;2023-08-01T21:33:32;17.60;99.30
35645;DHT22;21764;52.042;6.830;2023-08-01T21:38:35;17.60;99.30
35645;DHT22;21764;52.042;6.830;2023-08-01T21:43:36;17.60;99.20
35645;DHT22;21764;52.042;6.830;2023-08-01T21:48:40;17.50;99.30
35645;DHT22;21764;52.042;6.830;2023-08-01T21:53:43;17.50;99.20
35645;DHT22;21764;52.042;6.830;2023-08-01T21:58:44;17.50;99.40
35645;DHT22;21764;52.042;6.830;2023-08-01T22:03:44;17.50;99.30
35645;DHT22;21764;52.042;6.830;2023-08-01T22:08:49;17.50;99.20
35645;DHT22;21764;52.042;6.830;2023-08-01T22:13:50;17.50;99.40
35645;DHT22;21764;52.042;6.830;2023-08-01T22:18:54;17.40;99.70
35645;DHT22;21764;52.042;6.830;2023-08-01T22:23:54;17.40;99.90
35645;DHT22;21764;52.042;6.830;2023-08-01T22:28:55;17.30;99.70
35645;DHT22;21764;52.042;6.830;2023-08-01T22:33:56;17.20;99.90
35645;DHT22;21764;52.042;6.830;2023-08-01T22:38:57;17.10;99.90
35645;DHT22;21764;52.042;6.830;2023-08-01T22:43:58;17.00;99.90
35645;DHT22;21764;52.042;6.830;2023-08-01T22:48:59;17.00;99.90
35645;DHT22;21764;52.042;6.830;2023-08-01T22:53:59;16.80;99.90
35645;DHT22;21764;52.042;6.830;2023-08-01T22:59:00;16.60;99.90
35645;DHT22;21764;52.042;6.830;2023-08-01T23:04:01;16.40;99.90
35645;DHT22;21764;52.042;6.830;2023-08-01T23:09:02;16.10;99.90
35645;DHT22;21764;52.042;6.830;2023-08-01T23:14:03;16.00;99.90
35645;DHT22;21764;52.042;6.830;2023-08-01T23:19:04;15.90;99.90
35645;DHT22;21764;52.042;6.830;2023-08-01T23:24:04;15.70;99.90
35645;DHT22;21764;52.042;6.830;2023-08-01T23:29:05;15.70;99.90
35645;DHT22;21764;52.042;6.830;2023-08-01T23:34:06;15.70;99.90
35645;DHT22;21764;52.042;6.830;2023-08-01T23:39:07;15.70;99.90
35645;DHT22;21764;52.042;6.830;2023-08-01T23:44:08;15.70;99.90
35645;DHT22;21764;52.042;6.830;2023-08-01T23:49:08;15.60;99.90
35645;DHT22;21764;52.042;6.830;2023-08-01T23:54:09;15.50;99.90
35645;DHT22;21764;52.042;6.830;2023-08-01T23:59:10;15.40;99.90
